sensor_id;sensor_type;location;lat;lon;timestamp;pressure;altitude;pressure_sealevel;temperature;humidity
73085;BME280;62974;49.460;10.892;2023-09-08T00:00:06;98134.03;;;18.46;77.87
73085;BME280;62974;49.460;10.892;2023-09-08T00:02:35;98139.03;;;18.38;78.33
73085;BME280;62974;49.460;10.892;2023-09-08T00:05:04;98129.81;;;18.39;77.75
73085;BME280;62974;49.460;10.892;2023-09-08T00:07:33;98134.16;;;18.40;77.69
73085;BME280;62974;49.460;10.892;2023-09-08T00:10:00;98133.25;;;18.34;78.11
73085;BME280;62974;49.460;10.892;2023-09-08T00:12:28;98141.06;;;18.30;77.99
73085;BME280;62974;49.460;10.892;2023-09-08T00:14:55;98131.25;;;18.29;77.74
73085;BME280;62974;49.460;10.892;2023-09-08T00:17:23;98132.59;;;18.27;78.07
73085;BME280;62974;49.460;10.892;2023-09-08T00:19:50;98139.78;;;18.21;78.16
73085;BME280;62974;49.460;10.892;2023-09-08T00:22:19;98129.16;;;18.20;78.53
73085;BME280;62974;49.460;10.892;2023-09-08T00:24:47;98134.13;;;18.23;77.94
73085;BME280;62974;49.460;10.892;2023-09-08T00:27:15;98132.69;;;18.20;77.85
73085;BME280;62974;49.460;10.892;2023-09-08T00:29:42;98125.88;;;18.18;78.12
73085;BME280;62974;49.460;10.892;2023-09-08T00:32:10;98130.28;;;18.07;78.28
73085;BME280;62974;49.460;10.892;2023-09-08T00:34:40;98133.44;;;18.04;78.62
73085;BME280;62974;49.460;10.892;2023-09-08T00:37:08;98132.88;;;18.02;78.74
73085;BME280;62974;49.460;10.892;2023-09-08T00:39:37;98129.09;;;18.03;78.33
73085;BME280;62974;49.460;10.892;2023-09-08T00:42:05;98129.91;;;18.04;78.17
73085;BME280;62974;49.460;10.892;2023-09-08T00:44:33;98130.16;;;18.02;78.22
73085;BME280;62974;49.460;10.892;2023-09-08T00:47:01;98125.66;;;17.96;78.61
73085;BME280;62974;49.460;10.892;2023-09-08T00:49:29;98125.09;;;17.94;78.60
73085;BME280;62974;49.460;10.892;2023-09-08T00:51:56;98130.06;;;17.86;78.94
73085;BME280;62974;49.460;10.892;2023-09-08T00:54:24;98122.88;;;17.91;78.62
73085;BME280;62974;49.460;10.892;2023-09-08T00:56:55;98121.22;;;17.90;78.25
73085;BME280;62974;49.460;10.892;2023-09-08T00:59:23;98119.09;;;17.80;78.68
73085;BME280;62974;49.460;10.892;2023-09-08T01:01:52;98123.81;;;17.85;78.58
73085;BME280;62974;49.460;10.892;2023-09-08T01:04:20;98122.41;;;17.71;79.29
73085;BME280;62974;49.460;10.892;2023-09-08T01:06:48;98117.00;;;17.71;78.98
73085;BME280;62974;49.460;10.892;2023-09-08T01:09:16;98120.63;;;17.65;79.42
73085;BME280;62974;49.460;10.892;2023-09-08T01:11:45;98126.75;;;17.72;78.84
73085;BME280;62974;49.460;10.892;2023-09-08T01:14:17;98128.22;;;17.63;79.27
73085;BME280;62974;49.460;10.892;2023-09-08T01:16:45;98126.41;;;17.68;78.84
73085;BME280;62974;49.460;10.892;2023-09-08T01:19:14;98128.91;;;17.70;78.60
73085;BME280;62974;49.460;10.892;2023-09-08T01:22:21;98135.53;;;17.62;78.76
73085;BME280;62974;49.460;10.892;2023-09-08T01:25:15;98127.88;;;17.59;78.56
73085;BME280;62974;49.460;10.892;2023-09-08T01:27:47;98133.13;;;17.54;79.02
73085;BME280;62974;49.460;10.892;2023-09-08T01:30:16;98131.97;;;17.50;78.58
73085;BME280;62974;49.460;10.892;2023-09-08T01:32:45;98133.50;;;17.46;79.09
73085;BME280;62974;49.460;10.892;2023-09-08T01:35:13;98134.19;;;17.42;79.39
73085;BME280;62974;49.460;10.892;2023-09-08T01:37:41;98129.38;;;17.44;78.79
73085;BME280;62974;49.460;10.892;2023-09-08T01:40:11;98120.84;;;17.40;78.94
73085;BME280;62974;49.460;10.892;2023-09-08T01:42:38;98128.53;;;17.43;79.06
73085;BME280;62974;49.460;10.892;2023-09-08T01:45:07;98130.66;;;17.41;78.82
73085;BME280;62974;49.460;10.892;2023-09-08T01:47:36;98124.66;;;17.39;78.78
73085;BME280;62974;49.460;10.892;2023-09-08T01:50:04;98120.50;;;17.36;78.86
73085;BME280;62974;49.460;10.892;2023-09-08T01:52:32;98124.53;;;17.34;78.85
73085;BME280;62974;49.460;10.892;2023-09-08T01:55:00;98122.63;;;17.34;78.67
73085;BME280;62974;49.460;10.892;2023-09-08T01:57:29;98117.56;;;17.26;78.92
73085;BME280;62974;49.460;10.892;2023-09-08T01:59:56;98122.38;;;17.24;78.96
73085;BME280;62974;49.460;10.892;2023-09-08T02:02:24;98112.13;;;17.26;78.70
73085;BME280;62974;49.460;10.892;2023-09-08T02:04:51;98115.75;;;17.20;78.70
73085;BME280;62974;49.460;10.892;2023-09-08T02:07:19;98125.91;;;17.13;79.39
73085;BME280;62974;49.460;10.892;2023-09-08T02:09:47;98125.00;;;17.19;78.87
73085;BME280;62974;49.460;10.892;2023-09-08T02:12:14;98124.84;;;17.14;79.12
73085;BME280;62974;49.460;10.892;2023-09-08T02:14:43;98124.84;;;17.14;78.88
73085;BME280;62974;49.460;10.892;2023-09-08T02:17:11;98120.97;;;17.10;78.95
73085;BME280;62974;49.460;10.892;2023-09-08T02:19:39;98127.91;;;17.06;78.94
73085;BME280;62974;49.460;10.892;2023-09-08T02:22:06;98130.03;;;17.04;78.84
73085;BME280;62974;49.460;10.892;2023-09-08T02:24:34;98118.81;;;17.01;78.98
73085;BME280;62974;49.460;10.892;2023-09-08T02:27:02;98124.59;;;17.04;78.93
73085;BME280;62974;49.460;10.892;2023-09-08T02:29:30;98127.19;;;16.99;78.92
73085;BME280;62974;49.460;10.892;2023-09-08T02:31:59;98129.31;;;16.97;78.83
73085;BME280;62974;49.460;10.892;2023-09-08T02:34:27;98127.28;;;16.92;78.66
73085;BME280;62974;49.460;10.892;2023-09-08T02:36:54;98129.56;;;16.96;78.86
73085;BME280;62974;49.460;10.892;2023-09-08T02:39:22;98134.22;;;16.88;78.60
73085;BME280;62974;49.460;10.892;2023-09-08T02:41:50;98123.63;;;16.87;78.62
73085;BME280;62974;49.460;10.892;2023-09-08T02:44:17;98137.56;;;16.90;78.53
73085;BME280;62974;49.460;10.892;2023-09-08T02:46:45;98135.19;;;16.82;78.75
73085;BME280;62974;49.460;10.892;2023-09-08T02:49:14;98127.03;;;16.82;78.65
73085;BME280;62974;49.460;10.892;2023-09-08T02:51:42;98139.63;;;16.77;78.69
73085;BME280;62974;49.460;10.892;2023-09-08T02:54:09;98131.28;;;16.78;78.89
73085;BME280;62974;49.460;10.892;2023-09-08T02:56:37;98130.56;;;16.71;78.96
73085;BME280;62974;49.460;10.892;2023-09-08T02:59:04;98137.59;;;16.72;78.89
73085;BME280;62974;49.460;10.892;2023-09-08T03:01:32;98134.09;;;16.72;78.59
73085;BME280;62974;49.460;10.892;2023-09-08T03:04:00;98130.63;;;16.65;78.86
73085;BME280;62974;49.460;10.892;2023-09-08T03:06:29;98135.69;;;16.61;78.97
73085;BME280;62974;49.460;10.892;2023-09-08T03:08:58;98134.88;;;16.61;78.97
73085;BME280;62974;49.460;10.892;2023-09-08T03:11:26;98137.81;;;16.59;79.13
73085;BME280;62974;49.460;10.892;2023-09-08T03:13:53;98136.16;;;16.58;78.95
73085;BME280;62974;49.460;10.892;2023-09-08T03:16:21;98132.81;;;16.56;79.34
73085;BME280;62974;49.460;10.892;2023-09-08T03:18:48;98123.72;;;16.51;79.49
73085;BME280;62974;49.460;10.892;2023-09-08T03:21:16;98124.78;;;16.50;79.34
73085;BME280;62974;49.460;10.892;2023-09-08T03:23:46;98118.78;;;16.48;79.13
73085;BME280;62974;49.460;10.892;2023-09-08T03:26:16;98127.28;;;16.51;79.33
73085;BME280;62974;49.460;10.892;2023-09-08T03:28:43;98117.69;;;16.49;79.16
73085;BME280;62974;49.460;10.892;2023-09-08T03:31:11;98113.34;;;16.48;79.03
73085;BME280;62974;49.460;10.892;2023-09-08T03:33:39;98115.44;;;16.45;79.21
73085;BME280;62974;49.460;10.892;2023-09-08T03:36:07;98117.44;;;16.38;79.56
73085;BME280;62974;49.460;10.892;2023-09-08T03:38:34;98112.22;;;16.37;79.57
73085;BME280;62974;49.460;10.892;2023-09-08T03:41:06;98115.19;;;16.35;79.63
73085;BME280;62974;49.460;10.892;2023-09-08T03:43:33;98107.75;;;16.31;79.74
73085;BME280;62974;49.460;10.892;2023-09-08T03:46:01;98107.28;;;16.34;79.51
73085;BME280;62974;49.460;10.892;2023-09-08T03:48:29;98109.25;;;16.27;79.83
73085;BME280;62974;49.460;10.892;2023-09-08T03:50:57;98105.72;;;16.26;79.57
73085;BME280;62974;49.460;10.892;2023-09-08T03:53:25;98110.63;;;16.18;79.87
73085;BME280;62974;49.460;10.892;2023-09-08T03:55:53;98113.69;;;16.21;79.94
73085;BME280;62974;49.460;10.892;2023-09-08T03:58:22;98103.09;;;16.20;79.75
73085;BME280;62974;49.460;10.892;2023-09-08T04:00:49;98108.94;;;16.17;79.71
73085;BME280;62974;49.460;10.892;2023-09-08T04:03:17;98109.78;;;16.17;79.66
73085;BME280;62974;49.460;10.892;2023-09-08T04:05:45;98110.25;;;16.14;79.64
73085;BME280;62974;49.460;10.892;2023-09-08T04:08:12;98114.84;;;16.14;79.65
73085;BME280;62974;49.460;10.892;2023-09-08T04:10:40;98118.00;;;16.11;79.29
73085;BME280;62974;49.460;10.892;2023-09-08T04:13:07;98112.91;;;16.03;79.89
73085;BME280;62974;49.460;10.892;2023-09-08T04:15:36;98117.63;;;16.07;79.62
73085;BME280;62974;49.460;10.892;2023-09-08T04:18:04;98115.97;;;16.06;79.24
73085;BME280;62974;49.460;10.892;2023-09-08T04:20:33;98124.63;;;15.96;80.28
73085;BME280;62974;49.460;10.892;2023-09-08T04:23:01;98117.69;;;16.01;79.35
73085;BME280;62974;49.460;10.892;2023-09-08T04:25:29;98121.13;;;15.96;79.81
73085;BME280;62974;49.460;10.892;2023-09-08T04:27:56;98117.78;;;15.94;79.77
73085;BME280;62974;49.460;10.892;2023-09-08T04:30:24;98119.09;;;15.91;80.15
73085;BME280;62974;49.460;10.892;2023-09-08T04:32:53;98119.47;;;15.95;79.79
73085;BME280;62974;49.460;10.892;2023-09-08T04:35:20;98120.13;;;15.90;79.61
73085;BME280;62974;49.460;10.892;2023-09-08T04:37:48;98123.66;;;15.91;79.50
73085;BME280;62974;49.460;10.892;2023-09-08T04:40:16;98120.13;;;15.90;79.27
73085;BME280;62974;49.460;10.892;2023-09-08T04:42:43;98126.38;;;15.91;79.59
73085;BME280;62974;49.460;10.892;2023-09-08T04:45:11;98117.94;;;15.81;79.53
73085;BME280;62974;49.460;10.892;2023-09-08T04:47:40;98118.56;;;15.83;79.62
73085;BME280;62974;49.460;10.892;2023-09-08T04:50:09;98125.63;;;15.84;79.16
73085;BME280;62974;49.460;10.892;2023-09-08T04:52:37;98121.25;;;15.83;79.56
73085;BME280;62974;49.460;10.892;2023-09-08T04:55:05;98130.69;;;15.80;79.63
73085;BME280;62974;49.460;10.892;2023-09-08T04:57:33;98122.16;;;15.77;79.10
73085;BME280;62974;49.460;10.892;2023-09-08T05:00:01;98117.81;;;15.76;79.64
73085;BME280;62974;49.460;10.892;2023-09-08T05:02:29;98128.28;;;15.72;79.68
73085;BME280;62974;49.460;10.892;2023-09-08T05:04:57;98125.56;;;15.72;79.49
73085;BME280;62974;49.460;10.892;2023-09-08T05:07:27;98134.72;;;15.71;79.42
73085;BME280;62974;49.460;10.892;2023-09-08T05:09:55;98127.66;;;15.70;79.66
73085;BME280;62974;49.460;10.892;2023-09-08T05:12:23;98134.94;;;15.70;79.41
73085;BME280;62974;49.460;10.892;2023-09-08T05:14:51;98129.53;;;15.70;79.83
73085;BME280;62974;49.460;10.892;2023-09-08T05:17:23;98128.69;;;15.69;79.95
73085;BME280;62974;49.460;10.892;2023-09-08T05:19:50;98132.69;;;15.67;80.15
73085;BME280;62974;49.460;10.892;2023-09-08T05:22:18;98136.38;;;15.72;80.01
73085;BME280;62974;49.460;10.892;2023-09-08T05:24:47;98130.16;;;15.72;79.91
73085;BME280;62974;49.460;10.892;2023-09-08T05:27:15;98134.94;;;15.70;80.09
73085;BME280;62974;49.460;10.892;2023-09-08T05:29:42;98139.91;;;15.73;80.49
73085;BME280;62974;49.460;10.892;2023-09-08T05:32:10;98141.94;;;15.77;80.15
73085;BME280;62974;49.460;10.892;2023-09-08T05:34:39;98140.31;;;15.76;80.38
73085;BME280;62974;49.460;10.892;2023-09-08T05:37:06;98136.31;;;15.79;80.63
73085;BME280;62974;49.460;10.892;2023-09-08T05:39:35;98137.13;;;15.79;80.73
73085;BME280;62974;49.460;10.892;2023-09-08T05:42:04;98135.63;;;15.83;80.56
73085;BME280;62974;49.460;10.892;2023-09-08T05:44:32;98143.97;;;15.82;80.69
73085;BME280;62974;49.460;10.892;2023-09-08T05:46:59;98151.66;;;15.85;80.83
73085;BME280;62974;49.460;10.892;2023-09-08T05:49:27;98153.69;;;15.89;80.95
73085;BME280;62974;49.460;10.892;2023-09-08T05:51:55;98157.00;;;15.91;81.10
73085;BME280;62974;49.460;10.892;2023-09-08T05:54:22;98152.69;;;15.66;84.21
73085;BME280;62974;49.460;10.892;2023-09-08T05:56:50;98150.38;;;15.87;81.50
73085;BME280;62974;49.460;10.892;2023-09-08T05:59:19;98150.38;;;15.87;83.02
73085;BME280;62974;49.460;10.892;2023-09-08T06:01:46;98151.72;;;15.78;84.54
73085;BME280;62974;49.460;10.892;2023-09-08T06:04:14;98157.00;;;15.48;89.29
73085;BME280;62974;49.460;10.892;2023-09-08T06:06:42;98157.13;;;15.35;93.56
73085;BME280;62974;49.460;10.892;2023-09-08T06:09:09;98155.47;;;15.59;88.83
73085;BME280;62974;49.460;10.892;2023-09-08T06:11:38;98158.84;;;15.73;89.04
73085;BME280;62974;49.460;10.892;2023-09-08T06:14:06;98154.13;;;15.86;88.68
73085;BME280;62974;49.460;10.892;2023-09-08T06:16:35;98156.03;;;15.68;92.88
73085;BME280;62974;49.460;10.892;2023-09-08T06:19:03;98154.25;;;15.05;100.00
73085;BME280;62974;49.460;10.892;2023-09-08T06:21:31;98153.13;;;15.13;100.00
73085;BME280;62974;49.460;10.892;2023-09-08T06:23:59;98136.72;;;15.33;100.00
73085;BME280;62974;49.460;10.892;2023-09-08T06:26:27;98139.31;;;15.53;100.00
73085;BME280;62974;49.460;10.892;2023-09-08T06:28:55;98139.09;;;15.90;96.03
73085;BME280;62974;49.460;10.892;2023-09-08T06:31:22;98132.53;;;15.98;91.04
73085;BME280;62974;49.460;10.892;2023-09-08T06:33:51;98137.13;;;16.16;88.73
73085;BME280;62974;49.460;10.892;2023-09-08T06:36:19;98135.25;;;16.16;88.52
73085;BME280;62974;49.460;10.892;2023-09-08T06:38:47;98132.66;;;16.21;89.45
73085;BME280;62974;49.460;10.892;2023-09-08T06:41:14;98142.09;;;16.19;97.64
73085;BME280;62974;49.460;10.892;2023-09-08T06:43:44;98142.59;;;16.27;91.93
73085;BME280;62974;49.460;10.892;2023-09-08T06:46:11;98136.94;;;16.29;90.04
73085;BME280;62974;49.460;10.892;2023-09-08T06:48:39;98136.72;;;16.30;88.37
73085;BME280;62974;49.460;10.892;2023-09-08T06:51:08;98143.56;;;16.33;90.71
73085;BME280;62974;49.460;10.892;2023-09-08T06:53:36;98138.66;;;16.41;88.52
73085;BME280;62974;49.460;10.892;2023-09-08T06:56:03;98137.41;;;16.26;100.00
73085;BME280;62974;49.460;10.892;2023-09-08T06:58:31;98144.63;;;16.32;100.00
73085;BME280;62974;49.460;10.892;2023-09-08T07:00:59;98142.16;;;16.30;100.00
73085;BME280;62974;49.460;10.892;2023-09-08T07:03:27;98149.66;;;16.47;90.61
73085;BME280;62974;49.460;10.892;2023-09-08T07:05:55;98151.84;;;16.38;99.37
73085;BME280;62974;49.460;10.892;2023-09-08T07:08:24;98141.63;;;16.40;97.74
73085;BME280;62974;49.460;10.892;2023-09-08T07:10:52;98152.00;;;16.43;100.00
73085;BME280;62974;49.460;10.892;2023-09-08T07:13:20;98157.94;;;16.52;100.00
73085;BME280;62974;49.460;10.892;2023-09-08T07:15:48;98158.00;;;16.63;100.00
73085;BME280;62974;49.460;10.892;2023-09-08T07:18:16;98156.69;;;16.66;97.83
73085;BME280;62974;49.460;10.892;2023-09-08T07:20:46;98157.06;;;16.69;100.00
73085;BME280;62974;49.460;10.892;2023-09-08T07:23:16;98144.13;;;16.71;94.89
73085;BME280;62974;49.460;10.892;2023-09-08T07:25:49;98152.88;;;16.85;100.00
73085;BME280;62974;49.460;10.892;2023-09-08T07:28:17;98149.09;;;16.86;96.94
73085;BME280;62974;49.460;10.892;2023-09-08T07:30:48;98143.47;;;16.87;94.75
73085;BME280;62974;49.460;10.892;2023-09-08T07:35:46;98142.88;;;17.09;97.72
73085;BME280;62974;49.460;10.892;2023-09-08T07:38:13;98143.69;;;16.98;98.18
73085;BME280;62974;49.460;10.892;2023-09-08T07:40:41;98145.59;;;17.09;100.00
73085;BME280;62974;49.460;10.892;2023-09-08T07:43:10;98145.53;;;17.15;100.00
73085;BME280;62974;49.460;10.892;2023-09-08T07:45:38;98137.47;;;17.32;100.00
73085;BME280;62974;49.460;10.892;2023-09-08T07:48:06;98145.75;;;17.25;100.00
73085;BME280;62974;49.460;10.892;2023-09-08T07:50:34;98143.50;;;17.22;98.60
73085;BME280;62974;49.460;10.892;2023-09-08T07:53:02;98149.19;;;17.56;100.00
73085;BME280;62974;49.460;10.892;2023-09-08T07:55:29;98142.22;;;17.36;96.41
73085;BME280;62974;49.460;10.892;2023-09-08T07:57:57;98145.53;;;17.50;97.13
73085;BME280;62974;49.460;10.892;2023-09-08T08:00:27;98136.56;;;17.50;95.35
73085;BME280;62974;49.460;10.892;2023-09-08T08:02:55;98144.09;;;17.36;94.06
73085;BME280;62974;49.460;10.892;2023-09-08T08:05:24;98141.41;;;17.94;92.93
73085;BME280;62974;49.460;10.892;2023-09-08T08:07:51;98140.59;;;17.82;93.30
73085;BME280;62974;49.460;10.892;2023-09-08T08:10:19;98139.06;;;17.86;91.84
73085;BME280;62974;49.460;10.892;2023-09-08T08:12:47;98140.28;;;18.18;87.13
73085;BME280;62974;49.460;10.892;2023-09-08T08:15:14;98149.09;;;18.37;89.72
73085;BME280;62974;49.460;10.892;2023-09-08T08:17:43;98141.91;;;18.31;88.24
73085;BME280;62974;49.460;10.892;2023-09-08T08:20:11;98144.31;;;18.04;87.33
73085;BME280;62974;49.460;10.892;2023-09-08T08:22:44;98149.63;;;18.51;94.01
73085;BME280;62974;49.460;10.892;2023-09-08T08:25:12;98143.25;;;18.05;92.46
73085;BME280;62974;49.460;10.892;2023-09-08T08:27:40;98142.88;;;18.13;88.07
73085;BME280;62974;49.460;10.892;2023-09-08T08:30:09;98136.63;;;18.13;89.35
73085;BME280;62974;49.460;10.892;2023-09-08T08:32:38;98142.59;;;18.38;87.75
73085;BME280;62974;49.460;10.892;2023-09-08T08:35:07;98146.91;;;18.62;85.80
73085;BME280;62974;49.460;10.892;2023-09-08T08:37:34;98133.94;;;19.14;80.14
73085;BME280;62974;49.460;10.892;2023-09-08T08:40:02;98137.50;;;18.70;82.55
73085;BME280;62974;49.460;10.892;2023-09-08T08:42:31;98133.38;;;19.29;82.11
73085;BME280;62974;49.460;10.892;2023-09-08T08:44:59;98138.81;;;19.12;82.24
73085;BME280;62974;49.460;10.892;2023-09-08T08:47:27;98145.09;;;18.68;85.96
73085;BME280;62974;49.460;10.892;2023-09-08T08:49:57;98144.97;;;18.91;84.42
73085;BME280;62974;49.460;10.892;2023-09-08T08:52:28;98127.84;;;19.57;81.90
73085;BME280;62974;49.460;10.892;2023-09-08T08:54:56;98131.94;;;18.93;82.89
73085;BME280;62974;49.460;10.892;2023-09-08T08:57:24;98125.38;;;19.94;80.38
73085;BME280;62974;49.460;10.892;2023-09-08T08:59:53;98132.94;;;19.20;81.95
73085;BME280;62974;49.460;10.892;2023-09-08T09:02:22;98124.53;;;19.39;83.05
73085;BME280;62974;49.460;10.892;2023-09-08T09:04:50;98127.44;;;19.49;82.17
73085;BME280;62974;49.460;10.892;2023-09-08T09:07:18;98124.25;;;19.90;80.42
73085;BME280;62974;49.460;10.892;2023-09-08T09:09:49;98115.03;;;20.61;76.31
73085;BME280;62974;49.460;10.892;2023-09-08T09:12:16;98108.78;;;20.93;76.63
73085;BME280;62974;49.460;10.892;2023-09-08T09:14:45;98104.44;;;20.43;76.21
73085;BME280;62974;49.460;10.892;2023-09-08T09:17:14;98109.00;;;20.59;74.11
73085;BME280;62974;49.460;10.892;2023-09-08T09:19:41;98121.06;;;20.20;79.37
73085;BME280;62974;49.460;10.892;2023-09-08T09:22:09;98115.88;;;20.40;76.59
73085;BME280;62974;49.460;10.892;2023-09-08T09:24:38;98116.38;;;20.15;77.26
73085;BME280;62974;49.460;10.892;2023-09-08T09:27:09;98112.06;;;20.20;77.74
73085;BME280;62974;49.460;10.892;2023-09-08T09:29:44;98099.03;;;20.75;74.74
73085;BME280;62974;49.460;10.892;2023-09-08T09:32:13;98111.53;;;20.66;76.22
73085;BME280;62974;49.460;10.892;2023-09-08T09:34:48;98109.06;;;20.43;76.71
73085;BME280;62974;49.460;10.892;2023-09-08T09:37:18;98099.28;;;21.00;76.68
73085;BME280;62974;49.460;10.892;2023-09-08T09:39:48;98094.66;;;21.33;74.77
73085;BME280;62974;49.460;10.892;2023-09-08T09:42:17;98104.81;;;21.10;75.35
73085;BME280;62974;49.460;10.892;2023-09-08T09:44:47;98097.38;;;20.69;75.68
73085;BME280;62974;49.460;10.892;2023-09-08T09:47:15;98099.25;;;20.69;75.67
73085;BME280;62974;49.460;10.892;2023-09-08T09:49:43;98102.75;;;20.91;78.11
73085;BME280;62974;49.460;10.892;2023-09-08T09:52:12;98085.31;;;21.66;69.43
73085;BME280;62974;49.460;10.892;2023-09-08T09:54:41;98096.22;;;21.24;75.81
73085;BME280;62974;49.460;10.892;2023-09-08T09:57:11;98085.66;;;21.32;74.51
73085;BME280;62974;49.460;10.892;2023-09-08T09:59:42;98079.53;;;21.62;73.10
73085;BME280;62974;49.460;10.892;2023-09-08T10:02:13;98089.19;;;21.01;76.03
73085;BME280;62974;49.460;10.892;2023-09-08T10:04:41;98081.16;;;22.00;73.29
73085;BME280;62974;49.460;10.892;2023-09-08T10:07:09;98079.56;;;21.67;70.53
73085;BME280;62974;49.460;10.892;2023-09-08T10:09:37;98070.81;;;22.12;66.34
73085;BME280;62974;49.460;10.892;2023-09-08T10:12:05;98078.31;;;21.90;67.07
73085;BME280;62974;49.460;10.892;2023-09-08T10:14:36;98074.75;;;21.84;68.06
73085;BME280;62974;49.460;10.892;2023-09-08T10:17:08;98074.22;;;21.87;68.89
73085;BME280;62974;49.460;10.892;2023-09-08T10:19:39;98071.97;;;22.41;65.85
73085;BME280;62974;49.460;10.892;2023-09-08T10:22:14;98075.97;;;22.04;67.65
73085;BME280;62974;49.460;10.892;2023-09-08T10:24:47;98067.34;;;22.37;65.39
73085;BME280;62974;49.460;10.892;2023-09-08T10:27:15;98070.34;;;21.73;67.82
73085;BME280;62974;49.460;10.892;2023-09-08T10:29:47;98071.63;;;22.18;67.20
73085;BME280;62974;49.460;10.892;2023-09-08T10:32:17;98072.63;;;22.74;71.16
73085;BME280;62974;49.460;10.892;2023-09-08T10:34:46;98058.34;;;22.52;65.64
73085;BME280;62974;49.460;10.892;2023-09-08T10:37:19;98057.31;;;22.73;63.75
73085;BME280;62974;49.460;10.892;2023-09-08T10:39:47;98056.22;;;22.79;63.25
73085;BME280;62974;49.460;10.892;2023-09-08T10:42:25;98060.88;;;22.88;63.81
73085;BME280;62974;49.460;10.892;2023-09-08T10:44:56;98055.66;;;22.87;63.73
73085;BME280;62974;49.460;10.892;2023-09-08T10:47:30;98043.88;;;23.47;61.38
73085;BME280;62974;49.460;10.892;2023-09-08T10:50:01;98046.00;;;22.54;63.69
73085;BME280;62974;49.460;10.892;2023-09-08T10:52:31;98021.28;;;23.80;58.09
73085;BME280;62974;49.460;10.892;2023-09-08T10:55:01;98029.84;;;23.64;56.78
73085;BME280;62974;49.460;10.892;2023-09-08T10:57:33;98037.56;;;23.57;60.35
73085;BME280;62974;49.460;10.892;2023-09-08T11:00:02;98022.72;;;23.63;53.94
73085;BME280;62974;49.460;10.892;2023-09-08T11:02:40;98013.34;;;24.38;49.95
73085;BME280;62974;49.460;10.892;2023-09-08T11:05:10;98039.38;;;23.81;54.95
73085;BME280;62974;49.460;10.892;2023-09-08T11:07:40;98047.59;;;23.81;57.81
73085;BME280;62974;49.460;10.892;2023-09-08T11:10:09;98027.19;;;24.18;51.69
73085;BME280;62974;49.460;10.892;2023-09-08T11:12:37;98028.25;;;24.22;51.78
73085;BME280;62974;49.460;10.892;2023-09-08T11:15:05;98030.88;;;24.42;53.51
73085;BME280;62974;49.460;10.892;2023-09-08T11:17:36;98046.00;;;23.75;54.10
73085;BME280;62974;49.460;10.892;2023-09-08T11:20:08;98028.63;;;24.49;50.89
73085;BME280;62974;49.460;10.892;2023-09-08T11:22:38;98027.06;;;24.38;50.96
73085;BME280;62974;49.460;10.892;2023-09-08T11:25:08;98033.84;;;24.56;52.07
73085;BME280;62974;49.460;10.892;2023-09-08T11:27:37;98023.81;;;24.36;49.96
73085;BME280;62974;49.460;10.892;2023-09-08T11:30:08;98047.06;;;23.84;56.03
73085;BME280;62974;49.460;10.892;2023-09-08T11:32:36;98035.50;;;23.93;55.32
73085;BME280;62974;49.460;10.892;2023-09-08T11:35:04;98029.38;;;24.11;52.95
73085;BME280;62974;49.460;10.892;2023-09-08T11:37:36;98016.75;;;24.64;50.03
73085;BME280;62974;49.460;10.892;2023-09-08T11:40:06;98009.34;;;24.59;47.98
73085;BME280;62974;49.460;10.892;2023-09-08T11:42:38;98017.03;;;24.62;49.60
73085;BME280;62974;49.460;10.892;2023-09-08T11:45:11;98015.56;;;24.75;49.71
73085;BME280;62974;49.460;10.892;2023-09-08T11:47:40;98007.53;;;24.84;47.83
73085;BME280;62974;49.460;10.892;2023-09-08T11:50:09;98022.00;;;24.99;50.58
73085;BME280;62974;49.460;10.892;2023-09-08T11:52:45;98007.53;;;25.17;46.63
73085;BME280;62974;49.460;10.892;2023-09-08T11:55:14;98000.25;;;25.32;45.38
73085;BME280;62974;49.460;10.892;2023-09-08T11:57:43;98009.88;;;25.29;46.16
73085;BME280;62974;49.460;10.892;2023-09-08T12:00:12;98012.53;;;24.32;47.08
73085;BME280;62974;49.460;10.892;2023-09-08T12:02:44;98011.56;;;24.57;48.87
73085;BME280;62974;49.460;10.892;2023-09-08T12:05:12;98018.78;;;24.82;51.50
73085;BME280;62974;49.460;10.892;2023-09-08T12:07:41;98005.69;;;24.69;46.51
73085;BME280;62974;49.460;10.892;2023-09-08T12:10:11;98001.94;;;25.28;44.79
73085;BME280;62974;49.460;10.892;2023-09-08T12:12:43;98009.50;;;25.12;47.88
73085;BME280;62974;49.460;10.892;2023-09-08T12:15:11;98011.28;;;24.59;47.70
73085;BME280;62974;49.460;10.892;2023-09-08T12:17:49;97995.25;;;25.34;44.89
73085;BME280;62974;49.460;10.892;2023-09-08T12:20:18;98007.97;;;24.62;49.87
73085;BME280;62974;49.460;10.892;2023-09-08T12:22:49;98014.06;;;24.54;50.09
73085;BME280;62974;49.460;10.892;2023-09-08T12:25:19;98009.25;;;25.08;50.49
73085;BME280;62974;49.460;10.892;2023-09-08T12:27:49;97999.31;;;25.12;47.64
73085;BME280;62974;49.460;10.892;2023-09-08T12:30:18;97983.75;;;25.32;46.30
73085;BME280;62974;49.460;10.892;2023-09-08T12:32:47;97994.19;;;25.82;47.55
73085;BME280;62974;49.460;10.892;2023-09-08T12:35:22;97987.56;;;25.36;45.13
73085;BME280;62974;49.460;10.892;2023-09-08T12:37:56;97987.00;;;25.86;44.46
73085;BME280;62974;49.460;10.892;2023-09-08T12:40:25;97993.88;;;25.07;47.86
73085;BME280;62974;49.460;10.892;2023-09-08T12:42:53;97996.19;;;25.77;47.60
73085;BME280;62974;49.460;10.892;2023-09-08T12:45:31;97990.44;;;25.73;47.61
73085;BME280;62974;49.460;10.892;2023-09-08T12:48:02;97988.50;;;25.50;45.34
73085;BME280;62974;49.460;10.892;2023-09-08T12:50:30;97970.16;;;25.40;43.02
73085;BME280;62974;49.460;10.892;2023-09-08T12:52:57;97970.13;;;25.69;40.88
73085;BME280;62974;49.460;10.892;2023-09-08T12:55:26;97985.69;;;25.31;44.53
73085;BME280;62974;49.460;10.892;2023-09-08T12:57:54;97964.47;;;25.60;42.00
73085;BME280;62974;49.460;10.892;2023-09-08T13:00:21;97991.22;;;24.97;47.76